sensor_id;sensor_type;location;lat;lon;timestamp;pressure;altitude;pressure_sealevel;temperature;humidity
69171;BME280;56279;47.902;12.308;2023-07-24T00:01:02;94890.13;;;19.13;79.05
69171;BME280;56279;47.902;12.308;2023-07-24T00:03:03;94883.88;;;19.09;79.53
69171;BME280;56279;47.902;12.308;2023-07-24T00:05:05;94882.22;;;19.05;79.96
69171;BME280;56279;47.902;12.308;2023-07-24T00:07:06;94874.78;;;18.98;80.27
69171;BME280;56279;47.902;12.308;2023-07-24T00:09:07;94871.25;;;18.94;80.44
69171;BME280;56279;47.902;12.308;2023-07-24T00:11:09;94867.69;;;18.90;80.99
69171;BME280;56279;47.902;12.308;2023-07-24T00:13:10;94869.03;;;18.84;81.07
69171;BME280;56279;47.902;12.308;2023-07-24T00:15:11;94865.50;;;18.80;81.39
69171;BME280;56279;47.902;12.308;2023-07-24T00:17:13;94857.72;;;18.75;81.13
69171;BME280;56279;47.902;12.308;2023-07-24T00:19:14;94861.06;;;18.72;81.35
69171;BME280;56279;47.902;12.308;2023-07-24T00:21:16;94860.97;;;18.69;81.20
69171;BME280;56279;47.902;12.308;2023-07-24T00:23:18;94852.94;;;18.69;81.32
69171;BME280;56279;47.902;12.308;2023-07-24T00:25:19;94855.19;;;18.67;81.27
69171;BME280;56279;47.902;12.308;2023-07-24T00:27:20;94852.06;;;18.65;80.97
69171;BME280;56279;47.902;12.308;2023-07-24T00:29:22;94842.13;;;18.65;81.01
69171;BME280;56279;47.902;12.308;2023-07-24T00:31:24;94849.84;;;18.67;80.51
69171;BME280;56279;47.902;12.308;2023-07-24T00:33:25;94849.50;;;18.68;80.82
69171;BME280;56279;47.902;12.308;2023-07-24T00:35:27;94848.28;;;18.66;80.64
69171;BME280;56279;47.902;12.308;2023-07-24T00:37:29;94847.84;;;18.63;80.81
69171;BME280;56279;47.902;12.308;2023-07-24T00:39:30;94844.72;;;18.61;80.62
69171;BME280;56279;47.902;12.308;2023-07-24T00:41:32;94841.63;;;18.59;81.11
69171;BME280;56279;47.902;12.308;2023-07-24T00:43:33;94851.09;;;18.57;81.06
69171;BME280;56279;47.902;12.308;2023-07-24T00:45:36;94849.09;;;18.54;81.12
69171;BME280;56279;47.902;12.308;2023-07-24T00:47:38;94846.31;;;18.50;81.23
69171;BME280;56279;47.902;12.308;2023-07-24T00:49:40;94840.06;;;18.46;81.12
69171;BME280;56279;47.902;12.308;2023-07-24T00:51:42;94834.59;;;18.43;81.29
69171;BME280;56279;47.902;12.308;2023-07-24T00:53:45;94838.38;;;18.42;81.38
69171;BME280;56279;47.902;12.308;2023-07-24T00:55:48;94839.84;;;18.39;81.38
69171;BME280;56279;47.902;12.308;2023-07-24T00:57:50;94837.50;;;18.38;81.52
69171;BME280;56279;47.902;12.308;2023-07-24T00:59:53;94831.38;;;18.37;81.66
69171;BME280;56279;47.902;12.308;2023-07-24T01:01:55;94827.16;;;18.36;81.44
69171;BME280;56279;47.902;12.308;2023-07-24T01:03:57;94828.72;;;18.37;81.04
69171;BME280;56279;47.902;12.308;2023-07-24T01:06:03;94826.47;;;18.39;80.97
69171;BME280;56279;47.902;12.308;2023-07-24T01:08:06;94824.94;;;18.38;81.14
69171;BME280;56279;47.902;12.308;2023-07-24T01:10:08;94820.69;;;18.37;80.99
69171;BME280;56279;47.902;12.308;2023-07-24T01:14:57;94817.59;;;18.35;80.83
69171;BME280;56279;47.902;12.308;2023-07-24T01:17:00;94819.91;;;18.37;80.79
69171;BME280;56279;47.902;12.308;2023-07-24T01:19:05;94810.13;;;18.41;80.54
69171;BME280;56279;47.902;12.308;2023-07-24T01:21:13;94807.53;;;18.44;79.86
69171;BME280;56279;47.902;12.308;2023-07-24T01:26:05;94787.41;;;18.47;79.41
69171;BME280;56279;47.902;12.308;2023-07-24T01:28:07;94783.63;;;18.48;79.41
69171;BME280;56279;47.902;12.308;2023-07-24T01:30:10;94787.41;;;18.47;79.89
69171;BME280;56279;47.902;12.308;2023-07-24T01:32:11;94777.06;;;18.45;79.70
69171;BME280;56279;47.902;12.308;2023-07-24T01:34:12;94780.38;;;18.42;79.55
69171;BME280;56279;47.902;12.308;2023-07-24T01:36:14;94774.69;;;18.44;79.24
69171;BME280;56279;47.902;12.308;2023-07-24T01:38:16;94766.38;;;18.45;79.43
69171;BME280;56279;47.902;12.308;2023-07-24T01:40:20;94767.91;;;18.46;79.41
69171;BME280;56279;47.902;12.308;2023-07-24T01:42:23;94769.84;;;18.46;79.12
69171;BME280;56279;47.902;12.308;2023-07-24T01:44:25;94761.47;;;18.47;79.09
69171;BME280;56279;47.902;12.308;2023-07-24T01:46:26;94751.56;;;18.48;79.07
69171;BME280;56279;47.902;12.308;2023-07-24T01:48:27;94747.31;;;18.47;79.31
69171;BME280;56279;47.902;12.308;2023-07-24T01:50:29;94748.09;;;18.47;79.38
69171;BME280;56279;47.902;12.308;2023-07-24T01:52:30;94747.31;;;18.47;79.18
69171;BME280;56279;47.902;12.308;2023-07-24T01:54:32;94746.22;;;18.48;79.15
69171;BME280;56279;47.902;12.308;2023-07-24T01:56:35;94737.06;;;18.49;78.89
69171;BME280;56279;47.902;12.308;2023-07-24T01:58:37;94735.97;;;18.50;79.04
69171;BME280;56279;47.902;12.308;2023-07-24T02:00:38;94734.50;;;18.52;78.76
69171;BME280;56279;47.902;12.308;2023-07-24T02:02:40;94734.94;;;18.54;78.98
69171;BME280;56279;47.902;12.308;2023-07-24T02:04:41;94733.91;;;18.59;78.61
69171;BME280;56279;47.902;12.308;2023-07-24T02:06:42;94725.22;;;18.62;78.28
69171;BME280;56279;47.902;12.308;2023-07-24T02:08:43;94732.53;;;18.65;78.08
69171;BME280;56279;47.902;12.308;2023-07-24T02:10:49;94733.75;;;18.68;78.18
69171;BME280;56279;47.902;12.308;2023-07-24T02:12:51;94737.56;;;18.67;78.17
69171;BME280;56279;47.902;12.308;2023-07-24T02:14:53;94742.00;;;18.62;78.24
69171;BME280;56279;47.902;12.308;2023-07-24T02:16:55;94746.84;;;18.57;78.69
69171;BME280;56279;47.902;12.308;2023-07-24T02:18:56;94745.63;;;18.54;78.87
69171;BME280;56279;47.902;12.308;2023-07-24T02:20:58;94737.84;;;18.49;79.13
69171;BME280;56279;47.902;12.308;2023-07-24T02:22:59;94739.94;;;18.44;79.80
69171;BME280;56279;47.902;12.308;2023-07-24T02:25:02;94738.22;;;18.36;80.41
69171;BME280;56279;47.902;12.308;2023-07-24T02:27:04;94739.22;;;18.31;80.56
69171;BME280;56279;47.902;12.308;2023-07-24T02:29:08;94737.59;;;18.27;80.59
69171;BME280;56279;47.902;12.308;2023-07-24T02:31:09;94743.59;;;18.24;81.31
69171;BME280;56279;47.902;12.308;2023-07-24T02:33:10;94735.03;;;18.18;81.57
69171;BME280;56279;47.902;12.308;2023-07-24T02:35:12;94732.28;;;18.15;81.62
69171;BME280;56279;47.902;12.308;2023-07-24T02:37:13;94736.75;;;18.11;81.65
69171;BME280;56279;47.902;12.308;2023-07-24T02:39:14;94736.63;;;18.07;82.06
69171;BME280;56279;47.902;12.308;2023-07-24T02:41:15;94747.22;;;18.04;81.91
69171;BME280;56279;47.902;12.308;2023-07-24T02:43:17;94739.53;;;18.02;82.08
69171;BME280;56279;47.902;12.308;2023-07-24T02:45:18;94740.97;;;18.00;82.13
69171;BME280;56279;47.902;12.308;2023-07-24T02:47:20;94740.88;;;17.96;82.27
69171;BME280;56279;47.902;12.308;2023-07-24T02:49:21;94749.56;;;17.93;82.67
69171;BME280;56279;47.902;12.308;2023-07-24T02:51:25;94745.22;;;17.88;82.83
69171;BME280;56279;47.902;12.308;2023-07-24T02:53:27;94741.69;;;17.84;82.96
69171;BME280;56279;47.902;12.308;2023-07-24T02:55:28;94741.25;;;17.82;83.11
69171;BME280;56279;47.902;12.308;2023-07-24T02:57:29;94746.47;;;17.79;83.29
69171;BME280;56279;47.902;12.308;2023-07-24T02:59:31;94741.47;;;17.77;83.35
69171;BME280;56279;47.902;12.308;2023-07-24T03:01:33;94750.56;;;17.76;83.54
69171;BME280;56279;47.902;12.308;2023-07-24T03:03:34;94743.25;;;17.73;83.63
69171;BME280;56279;47.902;12.308;2023-07-24T03:05:36;94748.59;;;17.73;83.48
69171;BME280;56279;47.902;12.308;2023-07-24T03:07:37;94745.94;;;17.73;83.30
69171;BME280;56279;47.902;12.308;2023-07-24T03:09:38;94752.72;;;17.71;83.48
69171;BME280;56279;47.902;12.308;2023-07-24T03:11:41;94747.38;;;17.71;84.18
69171;BME280;56279;47.902;12.308;2023-07-24T03:13:42;94744.59;;;17.67;84.38
69171;BME280;56279;47.902;12.308;2023-07-24T03:15:51;94746.47;;;17.67;83.88
69171;BME280;56279;47.902;12.308;2023-07-24T03:17:53;94749.91;;;17.67;84.12
69171;BME280;56279;47.902;12.308;2023-07-24T03:19:54;94747.59;;;17.66;83.96
69171;BME280;56279;47.902;12.308;2023-07-24T03:21:56;94742.25;;;17.66;84.23
69171;BME280;56279;47.902;12.308;2023-07-24T03:23:57;94742.25;;;17.66;83.75
69171;BME280;56279;47.902;12.308;2023-07-24T03:25:58;94737.38;;;17.68;83.75
69171;BME280;56279;47.902;12.308;2023-07-24T03:27:59;94727.47;;;17.68;83.41
69171;BME280;56279;47.902;12.308;2023-07-24T03:30:01;94725.59;;;17.69;83.11
69171;BME280;56279;47.902;12.308;2023-07-24T03:32:05;94732.13;;;17.71;83.10
69171;BME280;56279;47.902;12.308;2023-07-24T03:34:06;94725.69;;;17.72;82.75
69171;BME280;56279;47.902;12.308;2023-07-24T03:36:08;94732.47;;;17.70;82.85
69171;BME280;56279;47.902;12.308;2023-07-24T03:38:10;94740.69;;;17.65;82.56
69171;BME280;56279;47.902;12.308;2023-07-24T03:40:12;94751.28;;;17.61;82.93
69171;BME280;56279;47.902;12.308;2023-07-24T03:42:27;94751.84;;;17.55;83.03
69171;BME280;56279;47.902;12.308;2023-07-24T03:44:28;94767.50;;;17.56;83.26
69171;BME280;56279;47.902;12.308;2023-07-24T03:46:32;94930.53;;;17.63;82.94
69171;BME280;56279;47.902;12.308;2023-07-24T03:48:34;94940.53;;;17.66;83.08
69171;BME280;56279;47.902;12.308;2023-07-24T03:50:35;94854.66;;;17.64;83.29
69171;BME280;56279;47.902;12.308;2023-07-24T03:52:37;94911.19;;;17.66;82.72
69171;BME280;56279;47.902;12.308;2023-07-24T03:54:38;94906.72;;;17.70;82.29
69171;BME280;56279;47.902;12.308;2023-07-24T03:56:39;94908.97;;;17.80;82.01
69171;BME280;56279;47.902;12.308;2023-07-24T03:58:40;94898.97;;;17.89;81.47
69171;BME280;56279;47.902;12.308;2023-07-24T04:00:42;94905.00;;;17.99;81.21
69171;BME280;56279;47.902;12.308;2023-07-24T04:02:43;94893.41;;;18.07;80.72
69171;BME280;56279;47.902;12.308;2023-07-24T04:04:45;94914.25;;;18.13;80.33
69171;BME280;56279;47.902;12.308;2023-07-24T04:06:47;94920.34;;;18.14;79.98
69171;BME280;56279;47.902;12.308;2023-07-24T04:08:48;94920.78;;;18.16;79.84
69171;BME280;56279;47.902;12.308;2023-07-24T04:10:50;94931.47;;;18.16;79.56
69171;BME280;56279;47.902;12.308;2023-07-24T04:12:51;94928.13;;;18.19;79.87
69171;BME280;56279;47.902;12.308;2023-07-24T04:14:52;94922.47;;;18.20;79.41
69171;BME280;56279;47.902;12.308;2023-07-24T04:16:54;94910.31;;;18.23;79.74
69171;BME280;56279;47.902;12.308;2023-07-24T04:18:56;94902.00;;;18.24;79.53
69171;BME280;56279;47.902;12.308;2023-07-24T04:20:57;94900.53;;;18.27;79.74
69171;BME280;56279;47.902;12.308;2023-07-24T04:22:59;94903.31;;;18.30;79.25
69171;BME280;56279;47.902;12.308;2023-07-24T04:25:00;94915.00;;;18.38;78.85
69171;BME280;56279;47.902;12.308;2023-07-24T04:27:01;94912.53;;;18.45;78.62
69171;BME280;56279;47.902;12.308;2023-07-24T04:29:03;94905.88;;;18.51;79.09
69171;BME280;56279;47.902;12.308;2023-07-24T04:31:04;94900.31;;;18.56;79.00
69171;BME280;56279;47.902;12.308;2023-07-24T04:33:08;94886.28;;;18.59;78.83
69171;BME280;56279;47.902;12.308;2023-07-24T04:35:09;94884.91;;;18.65;79.04
69171;BME280;56279;47.902;12.308;2023-07-24T04:37:10;94881.56;;;18.68;79.22
69171;BME280;56279;47.902;12.308;2023-07-24T04:39:13;94889.25;;;18.70;78.79
69171;BME280;56279;47.902;12.308;2023-07-24T04:41:14;94890.47;;;18.72;79.34
69171;BME280;56279;47.902;12.308;2023-07-24T04:43:15;94898.16;;;18.74;79.29
69171;BME280;56279;47.902;12.308;2023-07-24T04:45:16;94900.50;;;18.75;79.06
69171;BME280;56279;47.902;12.308;2023-07-24T04:47:18;94903.16;;;18.75;78.95
69171;BME280;56279;47.902;12.308;2023-07-24T04:49:19;94903.16;;;18.75;79.59
69171;BME280;56279;47.902;12.308;2023-07-24T04:51:20;94902.81;;;18.77;79.26
69171;BME280;56279;47.902;12.308;2023-07-24T04:53:22;94893.34;;;18.79;80.21
69171;BME280;56279;47.902;12.308;2023-07-24T04:55:24;94889.88;;;18.79;80.43
69171;BME280;56279;47.902;12.308;2023-07-24T04:57:25;94886.78;;;18.77;80.30
69171;BME280;56279;47.902;12.308;2023-07-24T04:59:26;94884.88;;;18.77;80.67
69171;BME280;56279;47.902;12.308;2023-07-24T05:01:28;94886.03;;;18.76;80.03
69171;BME280;56279;47.902;12.308;2023-07-24T05:03:29;94866.84;;;18.74;80.51
69171;BME280;56279;47.902;12.308;2023-07-24T05:05:30;94863.94;;;18.79;80.17
69171;BME280;56279;47.902;12.308;2023-07-24T05:07:32;94857.91;;;18.82;80.02
69171;BME280;56279;47.902;12.308;2023-07-24T05:09:33;94847.75;;;18.88;79.99
69171;BME280;56279;47.902;12.308;2023-07-24T05:11:35;94834.91;;;18.93;79.84
69171;BME280;56279;47.902;12.308;2023-07-24T05:13:36;94844.25;;;18.99;79.26
69171;BME280;56279;47.902;12.308;2023-07-24T05:15:37;94835.66;;;19.06;79.38
69171;BME280;56279;47.902;12.308;2023-07-24T05:17:38;94835.16;;;19.16;79.25
69171;BME280;56279;47.902;12.308;2023-07-24T05:19:39;94846.91;;;19.27;78.71
69171;BME280;56279;47.902;12.308;2023-07-24T05:21:41;94842.63;;;19.38;78.84
69171;BME280;56279;47.902;12.308;2023-07-24T05:23:42;94835.22;;;19.47;78.65
69171;BME280;56279;47.902;12.308;2023-07-24T05:25:43;94836.19;;;19.55;78.27
69171;BME280;56279;47.902;12.308;2023-07-24T05:27:44;94839.81;;;19.62;78.00
69171;BME280;56279;47.902;12.308;2023-07-24T05:29:46;94845.41;;;19.73;78.20
69171;BME280;56279;47.902;12.308;2023-07-24T05:31:47;94846.72;;;19.79;77.51
69171;BME280;56279;47.902;12.308;2023-07-24T05:33:48;94827.38;;;19.85;77.40
69171;BME280;56279;47.902;12.308;2023-07-24T05:35:49;94818.72;;;19.92;77.10
69171;BME280;56279;47.902;12.308;2023-07-24T05:37:51;94802.13;;;20.02;76.67
69171;BME280;56279;47.902;12.308;2023-07-24T05:39:52;94804.25;;;20.12;76.90
69171;BME280;56279;47.902;12.308;2023-07-24T05:41:53;94801.47;;;20.24;76.22
69171;BME280;56279;47.902;12.308;2023-07-24T05:43:55;94802.94;;;20.37;75.66
69171;BME280;56279;47.902;12.308;2023-07-24T05:45:57;94802.03;;;20.49;75.93
69171;BME280;56279;47.902;12.308;2023-07-24T05:47:58;94807.97;;;20.58;75.00
69171;BME280;56279;47.902;12.308;2023-07-24T05:49:59;94802.00;;;20.68;74.46
69171;BME280;56279;47.902;12.308;2023-07-24T05:52:01;94802.25;;;20.79;74.35
69171;BME280;56279;47.902;12.308;2023-07-24T05:54:02;94803.16;;;20.86;74.01
69171;BME280;56279;47.902;12.308;2023-07-24T05:56:04;94796.28;;;20.89;73.70
69171;BME280;56279;47.902;12.308;2023-07-24T05:58:05;94794.75;;;20.88;73.58
69171;BME280;56279;47.902;12.308;2023-07-24T06:00:07;94801.66;;;20.89;73.79
69171;BME280;56279;47.902;12.308;2023-07-24T06:02:12;94796.72;;;20.91;73.57
69171;BME280;56279;47.902;12.308;2023-07-24T06:04:13;94796.78;;;20.94;73.53
69171;BME280;56279;47.902;12.308;2023-07-24T06:06:15;94809.56;;;21.01;73.70
69171;BME280;56279;47.902;12.308;2023-07-24T06:08:16;94809.66;;;21.04;73.44
69171;BME280;56279;47.902;12.308;2023-07-24T06:10:17;94803.59;;;21.07;73.39
69171;BME280;56279;47.902;12.308;2023-07-24T06:12:18;94800.25;;;21.14;73.34
69171;BME280;56279;47.902;12.308;2023-07-24T06:14:20;94795.44;;;21.23;73.29
69171;BME280;56279;47.902;12.308;2023-07-24T06:16:21;94806.06;;;21.39;73.18
69171;BME280;56279;47.902;12.308;2023-07-24T06:18:22;94794.03;;;21.52;72.82
69171;BME280;56279;47.902;12.308;2023-07-24T06:20:24;94795.31;;;21.61;72.40
69171;BME280;56279;47.902;12.308;2023-07-24T06:22:25;94790.84;;;21.69;72.11
69171;BME280;56279;47.902;12.308;2023-07-24T06:24:26;94788.63;;;21.74;72.22
69171;BME280;56279;47.902;12.308;2023-07-24T06:26:27;94793.28;;;21.77;71.83
69171;BME280;56279;47.902;12.308;2023-07-24T06:28:29;94783.38;;;21.81;72.09
69171;BME280;56279;47.902;12.308;2023-07-24T06:30:32;94791.59;;;21.92;71.88
69171;BME280;56279;47.902;12.308;2023-07-24T06:32:33;94782.94;;;22.02;71.51
69171;BME280;56279;47.902;12.308;2023-07-24T06:34:34;94779.19;;;22.10;71.34
69171;BME280;56279;47.902;12.308;2023-07-24T06:36:36;94778.44;;;22.10;71.03
69171;BME280;56279;47.902;12.308;2023-07-24T06:38:37;94774.59;;;22.11;70.66
69171;BME280;56279;47.902;12.308;2023-07-24T06:40:38;94774.66;;;22.14;70.71
69171;BME280;56279;47.902;12.308;2023-07-24T06:42:40;94773.59;;;22.19;70.32
69171;BME280;56279;47.902;12.308;2023-07-24T06:44:41;94767.13;;;22.23;70.29
69171;BME280;56279;47.902;12.308;2023-07-24T06:46:42;94771.78;;;22.26;69.98
69171;BME280;56279;47.902;12.308;2023-07-24T06:48:44;94761.00;;;22.26;70.15
69171;BME280;56279;47.902;12.308;2023-07-24T06:50:45;94757.13;;;22.24;70.21
69171;BME280;56279;47.902;12.308;2023-07-24T06:52:46;94744.41;;;22.21;70.48
69171;BME280;56279;47.902;12.308;2023-07-24T06:54:47;94748.69;;;22.25;70.39
69171;BME280;56279;47.902;12.308;2023-07-24T06:56:49;94750.69;;;22.32;70.27
69171;BME280;56279;47.902;12.308;2023-07-24T06:58:50;94756.56;;;22.41;70.20
69171;BME280;56279;47.902;12.308;2023-07-24T07:00:51;94759.03;;;22.53;69.79
69171;BME280;56279;47.902;12.308;2023-07-24T07:02:52;94753.84;;;22.67;69.21
69171;BME280;56279;47.902;12.308;2023-07-24T07:04:54;94740.16;;;22.79;68.92
69171;BME280;56279;47.902;12.308;2023-07-24T07:06:55;94735.34;;;22.95;69.04
69171;BME280;56279;47.902;12.308;2023-07-24T07:08:56;94733.19;;;23.11;68.09
69171;BME280;56279;47.902;12.308;2023-07-24T07:10:59;94730.63;;;23.25;67.85
69171;BME280;56279;47.902;12.308;2023-07-24T07:13:01;94729.22;;;23.38;67.42
69171;BME280;56279;47.902;12.308;2023-07-24T07:15:02;94721.63;;;23.48;67.35
69171;BME280;56279;47.902;12.308;2023-07-24T07:17:03;94718.56;;;23.53;66.46
69171;BME280;56279;47.902;12.308;2023-07-24T07:19:05;94705.56;;;23.62;66.14
69171;BME280;56279;47.902;12.308;2023-07-24T07:21:06;94706.06;;;23.78;65.33
69171;BME280;56279;47.902;12.308;2023-07-24T07:23:07;94696.50;;;23.94;64.22
69171;BME280;56279;47.902;12.308;2023-07-24T07:25:08;94694.25;;;23.96;63.41
69171;BME280;56279;47.902;12.308;2023-07-24T07:27:10;94684.97;;;23.94;62.75
69171;BME280;56279;47.902;12.308;2023-07-24T07:29:11;94679.91;;;23.85;62.68
69171;BME280;56279;47.902;12.308;2023-07-24T07:31:12;94676.81;;;23.80;62.76
69171;BME280;56279;47.902;12.308;2023-07-24T07:33:13;94672.56;;;23.75;62.45
69171;BME280;56279;47.902;12.308;2023-07-24T07:35:15;94667.50;;;23.74;62.86
69171;BME280;56279;47.902;12.308;2023-07-24T07:37:16;94668.69;;;23.76;63.13
69171;BME280;56279;47.902;12.308;2023-07-24T07:39:17;94656.03;;;23.84;63.15
69171;BME280;56279;47.902;12.308;2023-07-24T07:41:19;94661.50;;;23.98;63.05
69171;BME280;56279;47.902;12.308;2023-07-24T07:43:20;94659.28;;;24.14;62.42
69171;BME280;56279;47.902;12.308;2023-07-24T07:45:22;94669.75;;;24.26;62.32
69171;BME280;56279;47.902;12.308;2023-07-24T07:47:24;94668.66;;;24.38;62.45
69171;BME280;56279;47.902;12.308;2023-07-24T07:49:25;94669.06;;;24.47;62.53
69171;BME280;56279;47.902;12.308;2023-07-24T07:51:26;94672.91;;;24.53;62.26
69171;BME280;56279;47.902;12.308;2023-07-24T07:53:28;94677.22;;;24.57;62.93
69171;BME280;56279;47.902;12.308;2023-07-24T07:55:29;94680.28;;;24.63;62.73
69171;BME280;56279;47.902;12.308;2023-07-24T07:57:31;94679.91;;;24.71;63.32
69171;BME280;56279;47.902;12.308;2023-07-24T07:59:32;94684.59;;;24.82;62.52
69171;BME280;56279;47.902;12.308;2023-07-24T08:01:36;94683.47;;;24.90;62.18
69171;BME280;56279;47.902;12.308;2023-07-24T08:03:37;94690.03;;;24.96;62.38
69171;BME280;56279;47.902;12.308;2023-07-24T08:05:39;94687.34;;;25.10;62.00
69171;BME280;56279;47.902;12.308;2023-07-24T08:07:40;94686.97;;;25.25;61.92
69171;BME280;56279;47.902;12.308;2023-07-24T08:09:41;94696.25;;;25.42;61.92
69171;BME280;56279;47.902;12.308;2023-07-24T08:11:42;94690.09;;;25.59;61.00
69171;BME280;56279;47.902;12.308;2023-07-24T08:13:44;94693.19;;;25.68;61.29
69171;BME280;56279;47.902;12.308;2023-07-24T08:15:45;94683.16;;;25.69;60.48
69171;BME280;56279;47.902;12.308;2023-07-24T08:17:46;94680.06;;;25.60;59.35
69171;BME280;56279;47.902;12.308;2023-07-24T08:19:48;94685.84;;;25.51;59.45
69171;BME280;56279;47.902;12.308;2023-07-24T08:21:49;94701.31;;;25.44;60.07
69171;BME280;56279;47.902;12.308;2023-07-24T08:23:50;94717.53;;;25.47;59.42
69171;BME280;56279;47.902;12.308;2023-07-24T08:25:55;94731.81;;;25.62;59.64
69171;BME280;56279;47.902;12.308;2023-07-24T08:27:56;94758.47;;;25.67;58.03
69171;BME280;56279;47.902;12.308;2023-07-24T08:29:58;94797.84;;;25.64;58.51
69171;BME280;56279;47.902;12.308;2023-07-24T08:32:00;94805.56;;;25.52;59.00
69171;BME280;56279;47.902;12.308;2023-07-24T08:34:01;94814.34;;;25.34;59.15
69171;BME280;56279;47.902;12.308;2023-07-24T08:36:04;94829.38;;;25.14;59.97
69171;BME280;56279;47.902;12.308;2023-07-24T08:38:06;94820.00;;;24.91;61.15
69171;BME280;56279;47.902;12.308;2023-07-24T08:40:09;94794.84;;;24.72;61.31
69171;BME280;56279;47.902;12.308;2023-07-24T08:42:11;94807.56;;;24.68;61.54
69171;BME280;56279;47.902;12.308;2023-07-24T08:44:13;94832.59;;;24.65;61.24
69171;BME280;56279;47.902;12.308;2023-07-24T08:46:15;94827.56;;;24.60;61.33
69171;BME280;56279;47.902;12.308;2023-07-24T08:48:18;94821.38;;;24.56;61.42
69171;BME280;56279;47.902;12.308;2023-07-24T08:50:20;94824.88;;;24.67;60.74
69171;BME280;56279;47.902;12.308;2023-07-24T08:52:22;94837.31;;;24.79;60.34
69171;BME280;56279;47.902;12.308;2023-07-24T08:54:26;94851.28;;;24.95;60.46
69171;BME280;56279;47.902;12.308;2023-07-24T08:56:27;94859.44;;;25.09;59.44
69171;BME280;56279;47.902;12.308;2023-07-24T08:58:28;94853.69;;;25.18;59.75
69171;BME280;56279;47.902;12.308;2023-07-24T09:00:30;94863.38;;;25.26;59.39
69171;BME280;56279;47.902;12.308;2023-07-24T09:02:32;94866.06;;;25.26;59.46
69171;BME280;56279;47.902;12.308;2023-07-24T09:04:34;94855.63;;;25.21;60.01
69171;BME280;56279;47.902;12.308;2023-07-24T09:06:37;94854.84;;;25.13;59.59
69171;BME280;56279;47.902;12.308;2023-07-24T09:08:40;94843.22;;;25.09;60.25
69171;BME280;56279;47.902;12.308;2023-07-24T09:10:42;94850.97;;;25.14;60.76
69171;BME280;56279;47.902;12.308;2023-07-24T09:12:44;94852.13;;;25.17;59.35
69171;BME280;56279;47.902;12.308;2023-07-24T09:14:45;94852.13;;;25.10;59.64
69171;BME280;56279;47.902;12.308;2023-07-24T09:16:46;94839.75;;;25.02;59.14
69171;BME280;56279;47.902;12.308;2023-07-24T09:18:48;94824.69;;;25.01;59.59
69171;BME280;56279;47.902;12.308;2023-07-24T09:20:49;94840.91;;;25.04;59.50
69171;BME280;56279;47.902;12.308;2023-07-24T09:22:53;94836.72;;;25.17;59.60
69171;BME280;56279;47.902;12.308;2023-07-24T09:24:56;94828.63;;;25.28;58.64
69171;BME280;56279;47.902;12.308;2023-07-24T09:26:57;94832.91;;;25.36;58.69
69171;BME280;56279;47.902;12.308;2023-07-24T09:28:59;94837.59;;;25.46;58.69
69171;BME280;56279;47.902;12.308;2023-07-24T09:31:00;94826.81;;;25.57;58.06
69171;BME280;56279;47.902;12.308;2023-07-24T09:33:03;94818.31;;;25.62;57.28
69171;BME280;56279;47.902;12.308;2023-07-24T09:35:04;94826.06;;;25.67;56.85
69171;BME280;56279;47.902;12.308;2023-07-24T09:37:06;94822.94;;;25.68;56.73
69171;BME280;56279;47.902;12.308;2023-07-24T09:39:07;94818.69;;;25.74;54.90
69171;BME280;56279;47.902;12.308;2023-07-24T09:41:11;94818.72;;;25.85;55.28
69171;BME280;56279;47.902;12.308;2023-07-24T09:43:16;94819.09;;;26.04;54.76
69171;BME280;56279;47.902;12.308;2023-07-24T09:45:17;94814.47;;;26.19;54.01
69171;BME280;56279;47.902;12.308;2023-07-24T09:47:18;94809.44;;;26.32;54.40
69171;BME280;56279;47.902;12.308;2023-07-24T09:49:21;94809.81;;;26.37;54.58
69171;BME280;56279;47.902;12.308;2023-07-24T09:51:23;94806.31;;;26.47;53.26
69171;BME280;56279;47.902;12.308;2023-07-24T09:55:41;94802.41;;;26.66;52.84
69171;BME280;56279;47.902;12.308;2023-07-24T09:57:45;94789.25;;;26.71;53.23
69171;BME280;56279;47.902;12.308;2023-07-24T09:59:48;94784.19;;;26.81;53.17
69171;BME280;56279;47.902;12.308;2023-07-24T10:01:51;94781.84;;;26.90;53.84
69171;BME280;56279;47.902;12.308;2023-07-24T10:03:53;94774.09;;;26.92;53.37
69171;BME280;56279;47.902;12.308;2023-07-24T10:05:55;94773.34;;;26.88;53.98
69171;BME280;56279;47.902;12.308;2023-07-24T10:07:57;94761.72;;;26.87;54.66
69171;BME280;56279;47.902;12.308;2023-07-24T10:10:01;94757.06;;;26.91;54.69
69171;BME280;56279;47.902;12.308;2023-07-24T10:12:03;94746.59;;;26.97;54.39
69171;BME280;56279;47.902;12.308;2023-07-24T10:14:04;94743.50;;;26.95;53.37
69171;BME280;56279;47.902;12.308;2023-07-24T10:16:06;94736.16;;;26.92;53.19
69171;BME280;56279;47.902;12.308;2023-07-24T10:18:09;94754.00;;;26.86;53.47
69171;BME280;56279;47.902;12.308;2023-07-24T10:20:11;94743.19;;;26.82;54.26
69171;BME280;56279;47.902;12.308;2023-07-24T10:22:19;94733.13;;;26.83;54.47
69171;BME280;56279;47.902;12.308;2023-07-24T10:24:29;94734.19;;;26.99;53.75
69171;BME280;56279;47.902;12.308;2023-07-24T10:26:30;94727.91;;;27.16;53.01
69171;BME280;56279;47.902;12.308;2023-07-24T10:28:39;94736.34;;;27.29;51.61
69171;BME280;56279;47.902;12.308;2023-07-24T10:30:41;94724.31;;;27.37;51.34
69171;BME280;56279;47.902;12.308;2023-07-24T10:32:46;94725.75;;;27.52;52.25
69171;BME280;56279;47.902;12.308;2023-07-24T10:35:07;94723.28;;;27.68;51.85
69171;BME280;56279;47.902;12.308;2023-07-24T10:37:12;94717.81;;;27.75;51.41
69171;BME280;56279;47.902;12.308;2023-07-24T10:39:17;94711.16;;;27.80;51.97
69171;BME280;56279;47.902;12.308;2023-07-24T10:41:22;94713.88;;;27.80;52.67
69171;BME280;56279;47.902;12.308;2023-07-24T10:43:24;94718.22;;;27.74;53.14
69171;BME280;56279;47.902;12.308;2023-07-24T10:45:25;94707.72;;;27.76;52.83